Terminal Aerodrome Forecast
Issued by NWS

Home | Current Version | Previous Version | Text Only | Print | Product List | Glossary On
Versions: 1 2 3 4 5 6 7 8 9 10 11 12 13 14 15 16
143
FTUS46 KLOX 251131
TAFBUR
TAF
KBUR 251131Z 2512/2612 VRB04KT P6SM BKN015 OVC035
     FM251800 17008KT P6SM SCT025 OVC040
     FM252100 19010KT P6SM BKN050
     FM260300 VRB03KT P6SM SCT050
     FM260900 VRB03KT P6SM BKN040=

USA.gov is the U.S. government's official web portal to all federal, state and local government web resources and services.